sensor_id;sensor_type;location;lat;lon;timestamp;P1;durP1;ratioP1;P2;durP2;ratioP2
13366;SDS011;6752;52.612;13.630;2023-04-25T00:04:33;11.43;;;6.90;;
13366;SDS011;6752;52.612;13.630;2023-04-25T00:09:35;9.60;;;6.60;;
13366;SDS011;6752;52.612;13.630;2023-04-25T00:14:37;11.32;;;5.65;;
13366;SDS011;6752;52.612;13.630;2023-04-25T00:19:40;12.45;;;6.57;;
13366;SDS011;6752;52.612;13.630;2023-04-25T00:24:42;11.48;;;6.60;;
13366;SDS011;6752;52.612;13.630;2023-04-25T00:29:45;8.77;;;5.90;;
13366;SDS011;6752;52.612;13.630;2023-04-25T00:34:47;10.02;;;6.35;;
13366;SDS011;6752;52.612;13.630;2023-04-25T00:39:49;10.23;;;7.05;;
13366;SDS011;6752;52.612;13.630;2023-04-25T00:49:53;10.00;;;6.20;;
13366;SDS011;6752;52.612;13.630;2023-04-25T00:54:56;11.70;;;6.23;;
13366;SDS011;6752;52.612;13.630;2023-04-25T00:59:58;11.40;;;5.10;;
13366;SDS011;6752;52.612;13.630;2023-04-25T01:05:00;16.73;;;6.28;;
13366;SDS011;6752;52.612;13.630;2023-04-25T01:10:03;12.45;;;6.28;;
13366;SDS011;6752;52.612;13.630;2023-04-25T01:15:05;9.25;;;6.28;;
13366;SDS011;6752;52.612;13.630;2023-04-25T01:20:08;15.65;;;6.62;;
13366;SDS011;6752;52.612;13.630;2023-04-25T01:25:10;15.93;;;6.60;;
13366;SDS011;6752;52.612;13.630;2023-04-25T01:30:12;13.38;;;7.53;;
13366;SDS011;6752;52.612;13.630;2023-04-25T01:35:15;10.40;;;5.90;;
13366;SDS011;6752;52.612;13.630;2023-04-25T01:40:17;14.40;;;7.22;;
13366;SDS011;6752;52.612;13.630;2023-04-25T01:45:19;17.90;;;7.00;;
13366;SDS011;6752;52.612;13.630;2023-04-25T01:50:22;13.03;;;6.00;;
13366;SDS011;6752;52.612;13.630;2023-04-25T01:55:24;15.30;;;5.75;;
13366;SDS011;6752;52.612;13.630;2023-04-25T02:00:26;11.23;;;5.80;;
13366;SDS011;6752;52.612;13.630;2023-04-25T02:05:33;15.18;;;6.20;;
13366;SDS011;6752;52.612;13.630;2023-04-25T02:10:31;15.07;;;6.62;;
13366;SDS011;6752;52.612;13.630;2023-04-25T02:15:34;18.92;;;6.90;;
13366;SDS011;6752;52.612;13.630;2023-04-25T02:20:36;14.60;;;7.05;;
13366;SDS011;6752;52.612;13.630;2023-04-25T02:25:38;19.23;;;7.45;;
13366;SDS011;6752;52.612;13.630;2023-04-25T02:30:41;14.32;;;6.90;;
13366;SDS011;6752;52.612;13.630;2023-04-25T02:35:43;13.48;;;7.37;;
13366;SDS011;6752;52.612;13.630;2023-04-25T02:40:45;15.45;;;7.10;;
13366;SDS011;6752;52.612;13.630;2023-04-25T02:45:48;12.90;;;7.60;;
13366;SDS011;6752;52.612;13.630;2023-04-25T02:50:50;16.08;;;6.75;;
13366;SDS011;6752;52.612;13.630;2023-04-25T02:55:53;14.52;;;7.55;;
13366;SDS011;6752;52.612;13.630;2023-04-25T03:00:55;13.23;;;7.70;;
13366;SDS011;6752;52.612;13.630;2023-04-25T03:05:57;12.88;;;7.00;;
13366;SDS011;6752;52.612;13.630;2023-04-25T03:10:59;16.90;;;8.00;;
13366;SDS011;6752;52.612;13.630;2023-04-25T03:16:02;18.25;;;8.02;;
13366;SDS011;6752;52.612;13.630;2023-04-25T03:21:04;14.73;;;8.00;;
13366;SDS011;6752;52.612;13.630;2023-04-25T03:26:07;22.05;;;12.45;;
13366;SDS011;6752;52.612;13.630;2023-04-25T03:31:09;13.20;;;7.55;;
13366;SDS011;6752;52.612;13.630;2023-04-25T03:41:13;21.67;;;8.75;;
13366;SDS011;6752;52.612;13.630;2023-04-25T03:46:15;14.63;;;8.77;;
13366;SDS011;6752;52.612;13.630;2023-04-25T03:51:18;15.32;;;7.20;;
13366;SDS011;6752;52.612;13.630;2023-04-25T03:56:20;15.77;;;8.23;;
13366;SDS011;6752;52.612;13.630;2023-04-25T04:01:23;16.75;;;8.75;;
13366;SDS011;6752;52.612;13.630;2023-04-25T04:06:25;15.95;;;8.55;;
13366;SDS011;6752;52.612;13.630;2023-04-25T04:11:27;14.50;;;8.43;;
13366;SDS011;6752;52.612;13.630;2023-04-25T04:16:30;20.65;;;9.55;;
13366;SDS011;6752;52.612;13.630;2023-04-25T04:21:32;18.23;;;8.23;;
13366;SDS011;6752;52.612;13.630;2023-04-25T04:26:34;14.43;;;8.73;;
13366;SDS011;6752;52.612;13.630;2023-04-25T04:31:37;15.55;;;8.05;;
13366;SDS011;6752;52.612;13.630;2023-04-25T04:36:39;16.70;;;8.63;;
13366;SDS011;6752;52.612;13.630;2023-04-25T04:41:41;15.73;;;8.40;;
13366;SDS011;6752;52.612;13.630;2023-04-25T04:46:44;14.73;;;8.07;;
13366;SDS011;6752;52.612;13.630;2023-04-25T04:51:46;16.95;;;8.20;;
13366;SDS011;6752;52.612;13.630;2023-04-25T04:56:48;18.87;;;8.52;;
13366;SDS011;6752;52.612;13.630;2023-04-25T05:01:52;18.70;;;8.23;;
13366;SDS011;6752;52.612;13.630;2023-04-25T05:06:53;18.30;;;8.70;;
13366;SDS011;6752;52.612;13.630;2023-04-25T05:11:56;13.00;;;8.05;;
13366;SDS011;6752;52.612;13.630;2023-04-25T05:16:58;15.90;;;7.28;;
13366;SDS011;6752;52.612;13.630;2023-04-25T05:22:00;15.70;;;8.25;;
13366;SDS011;6752;52.612;13.630;2023-04-25T05:27:03;18.65;;;8.02;;
13366;SDS011;6752;52.612;13.630;2023-04-25T05:32:05;13.07;;;7.35;;
13366;SDS011;6752;52.612;13.630;2023-04-25T05:37:07;12.27;;;7.53;;
13366;SDS011;6752;52.612;13.630;2023-04-25T05:42:10;16.00;;;7.93;;
13366;SDS011;6752;52.612;13.630;2023-04-25T05:47:12;16.48;;;7.35;;
13366;SDS011;6752;52.612;13.630;2023-04-25T05:52:14;13.70;;;8.18;;
13366;SDS011;6752;52.612;13.630;2023-04-25T05:57:24;12.97;;;7.00;;
13366;SDS011;6752;52.612;13.630;2023-04-25T06:02:22;14.27;;;7.22;;
13366;SDS011;6752;52.612;13.630;2023-04-25T06:12:26;15.32;;;8.32;;
13366;SDS011;6752;52.612;13.630;2023-04-25T06:22:30;20.02;;;9.30;;
13366;SDS011;6752;52.612;13.630;2023-04-25T06:27:33;18.08;;;9.27;;
13366;SDS011;6752;52.612;13.630;2023-04-25T06:37:37;12.57;;;8.25;;
13366;SDS011;6752;52.612;13.630;2023-04-25T06:42:39;15.40;;;8.90;;
13366;SDS011;6752;52.612;13.630;2023-04-25T06:47:42;16.27;;;8.20;;
13366;SDS011;6752;52.612;13.630;2023-04-25T06:52:44;15.70;;;8.05;;
13366;SDS011;6752;52.612;13.630;2023-04-25T06:57:46;16.10;;;9.05;;
13366;SDS011;6752;52.612;13.630;2023-04-25T07:02:49;15.20;;;9.07;;
13366;SDS011;6752;52.612;13.630;2023-04-25T07:07:51;17.35;;;8.00;;
13366;SDS011;6752;52.612;13.630;2023-04-25T07:12:53;20.75;;;9.27;;
13366;SDS011;6752;52.612;13.630;2023-04-25T07:17:56;20.80;;;8.57;;
13366;SDS011;6752;52.612;13.630;2023-04-25T07:22:58;17.95;;;8.35;;
13366;SDS011;6752;52.612;13.630;2023-04-25T07:28:01;19.58;;;9.00;;
13366;SDS011;6752;52.612;13.630;2023-04-25T07:33:03;13.13;;;7.90;;
13366;SDS011;6752;52.612;13.630;2023-04-25T07:38:05;15.48;;;8.18;;
13366;SDS011;6752;52.612;13.630;2023-04-25T07:43:08;16.27;;;8.30;;
13366;SDS011;6752;52.612;13.630;2023-04-25T07:48:10;15.18;;;8.95;;
13366;SDS011;6752;52.612;13.630;2023-04-25T07:53:12;19.10;;;8.38;;
13366;SDS011;6752;52.612;13.630;2023-04-25T07:58:15;18.77;;;8.45;;
13366;SDS011;6752;52.612;13.630;2023-04-25T08:03:17;18.30;;;8.03;;
13366;SDS011;6752;52.612;13.630;2023-04-25T08:18:23;20.83;;;8.13;;
13366;SDS011;6752;52.612;13.630;2023-04-25T08:23:25;24.58;;;8.35;;
13366;SDS011;6752;52.612;13.630;2023-04-25T08:28:28;23.30;;;8.15;;
13366;SDS011;6752;52.612;13.630;2023-04-25T08:33:30;26.20;;;9.32;;
13366;SDS011;6752;52.612;13.630;2023-04-25T08:38:33;33.78;;;9.48;;
13366;SDS011;6752;52.612;13.630;2023-04-25T08:43:35;31.77;;;8.82;;
13366;SDS011;6752;52.612;13.630;2023-04-25T08:48:37;25.02;;;8.57;;
13366;SDS011;6752;52.612;13.630;2023-04-25T08:53:40;32.22;;;8.90;;
13366;SDS011;6752;52.612;13.630;2023-04-25T08:58:42;23.90;;;7.60;;
13366;SDS011;6752;52.612;13.630;2023-04-25T09:03:44;26.08;;;7.30;;
13366;SDS011;6752;52.612;13.630;2023-04-25T09:08:49;31.08;;;7.93;;
13366;SDS011;6752;52.612;13.630;2023-04-25T09:13:49;23.07;;;7.57;;
13366;SDS011;6752;52.612;13.630;2023-04-25T09:18:51;25.40;;;6.57;;
13366;SDS011;6752;52.612;13.630;2023-04-25T09:23:54;22.77;;;7.43;;
13366;SDS011;6752;52.612;13.630;2023-04-25T09:29:06;26.65;;;7.10;;
13366;SDS011;6752;52.612;13.630;2023-04-25T09:34:10;21.40;;;7.03;;
13366;SDS011;6752;52.612;13.630;2023-04-25T09:39:13;21.17;;;7.35;;
13366;SDS011;6752;52.612;13.630;2023-04-25T09:44:22;27.55;;;7.03;;
13366;SDS011;6752;52.612;13.630;2023-04-25T09:49:20;30.50;;;7.10;;
13366;SDS011;6752;52.612;13.630;2023-04-25T09:54:23;27.77;;;7.07;;
13366;SDS011;6752;52.612;13.630;2023-04-25T09:59:28;23.27;;;7.20;;
13366;SDS011;6752;52.612;13.630;2023-04-25T10:04:30;21.30;;;6.68;;
13366;SDS011;6752;52.612;13.630;2023-04-25T10:09:33;21.10;;;5.72;;
13366;SDS011;6752;52.612;13.630;2023-04-25T10:14:35;23.08;;;5.87;;
13366;SDS011;6752;52.612;13.630;2023-04-25T10:19:37;23.73;;;5.80;;
13366;SDS011;6752;52.612;13.630;2023-04-25T10:24:40;18.02;;;5.50;;
13366;SDS011;6752;52.612;13.630;2023-04-25T10:29:42;14.13;;;4.82;;
13366;SDS011;6752;52.612;13.630;2023-04-25T10:34:44;20.40;;;4.97;;
13366;SDS011;6752;52.612;13.630;2023-04-25T10:39:49;15.55;;;5.10;;
13366;SDS011;6752;52.612;13.630;2023-04-25T10:45:01;20.48;;;5.30;;
13366;SDS011;6752;52.612;13.630;2023-04-25T10:50:06;16.02;;;4.75;;
13366;SDS011;6752;52.612;13.630;2023-04-25T10:55:08;16.95;;;3.72;;
13366;SDS011;6752;52.612;13.630;2023-04-25T11:00:11;14.25;;;4.57;;
13366;SDS011;6752;52.612;13.630;2023-04-25T11:05:20;20.60;;;4.62;;
13366;SDS011;6752;52.612;13.630;2023-04-25T11:10:21;20.03;;;5.03;;
13366;SDS011;6752;52.612;13.630;2023-04-25T11:15:23;16.45;;;4.00;;
13366;SDS011;6752;52.612;13.630;2023-04-25T11:20:26;15.52;;;4.22;;
13366;SDS011;6752;52.612;13.630;2023-04-25T11:25:28;16.27;;;4.37;;
13366;SDS011;6752;52.612;13.630;2023-04-25T11:30:30;11.98;;;4.32;;
13366;SDS011;6752;52.612;13.630;2023-04-25T11:35:33;16.08;;;4.47;;
13366;SDS011;6752;52.612;13.630;2023-04-25T11:40:35;9.80;;;3.45;;
13366;SDS011;6752;52.612;13.630;2023-04-25T11:45:37;16.40;;;4.03;;
13366;SDS011;6752;52.612;13.630;2023-04-25T11:50:40;12.90;;;3.85;;
13366;SDS011;6752;52.612;13.630;2023-04-25T11:55:42;11.93;;;4.27;;
13366;SDS011;6752;52.612;13.630;2023-04-25T12:00:44;14.80;;;4.07;;
13366;SDS011;6752;52.612;13.630;2023-04-25T12:05:47;11.57;;;4.47;;
13366;SDS011;6752;52.612;13.630;2023-04-25T12:10:49;16.60;;;4.55;;
13366;SDS011;6752;52.612;13.630;2023-04-25T12:15:53;14.75;;;4.50;;
13366;SDS011;6752;52.612;13.630;2023-04-25T12:20:54;11.60;;;4.07;;
13366;SDS011;6752;52.612;13.630;2023-04-25T12:25:56;15.90;;;4.60;;
13366;SDS011;6752;52.612;13.630;2023-04-25T12:30:59;13.40;;;3.72;;
13366;SDS011;6752;52.612;13.630;2023-04-25T12:36:02;10.07;;;3.45;;
13366;SDS011;6752;52.612;13.630;2023-04-25T12:41:03;11.00;;;3.70;;
13366;SDS011;6752;52.612;13.630;2023-04-25T12:46:06;18.05;;;4.25;;
13366;SDS011;6752;52.612;13.630;2023-04-25T12:51:08;9.30;;;3.53;;
13366;SDS011;6752;52.612;13.630;2023-04-25T12:56:10;10.10;;;3.58;;
13366;SDS011;6752;52.612;13.630;2023-04-25T13:01:13;13.15;;;4.22;;
13366;SDS011;6752;52.612;13.630;2023-04-25T13:06:16;9.38;;;3.97;;
13366;SDS011;6752;52.612;13.630;2023-04-25T13:11:20;16.05;;;4.43;;
13366;SDS011;6752;52.612;13.630;2023-04-25T13:16:22;10.80;;;3.42;;
13366;SDS011;6752;52.612;13.630;2023-04-25T13:21:25;15.00;;;4.80;;
13366;SDS011;6752;52.612;13.630;2023-04-25T13:26:27;8.38;;;3.90;;
13366;SDS011;6752;52.612;13.630;2023-04-25T13:31:30;12.43;;;4.85;;
13366;SDS011;6752;52.612;13.630;2023-04-25T13:36:32;16.60;;;3.90;;
13366;SDS011;6752;52.612;13.630;2023-04-25T13:46:36;15.98;;;4.68;;
13366;SDS011;6752;52.612;13.630;2023-04-25T13:51:38;13.32;;;4.62;;
13366;SDS011;6752;52.612;13.630;2023-04-25T13:56:41;16.05;;;4.53;;
13366;SDS011;6752;52.612;13.630;2023-04-25T14:06:45;14.77;;;4.57;;
13366;SDS011;6752;52.612;13.630;2023-04-25T14:11:47;10.82;;;5.40;;
13366;SDS011;6752;52.612;13.630;2023-04-25T14:16:50;16.15;;;5.62;;
13366;SDS011;6752;52.612;13.630;2023-04-25T14:21:52;12.32;;;4.95;;
13366;SDS011;6752;52.612;13.630;2023-04-25T14:26:54;19.87;;;5.00;;
13366;SDS011;6752;52.612;13.630;2023-04-25T14:31:57;15.25;;;4.65;;
13366;SDS011;6752;52.612;13.630;2023-04-25T14:36:59;12.77;;;4.15;;
13366;SDS011;6752;52.612;13.630;2023-04-25T14:47:03;10.48;;;4.15;;
13366;SDS011;6752;52.612;13.630;2023-04-25T14:52:06;10.45;;;4.22;;
13366;SDS011;6752;52.612;13.630;2023-04-25T14:57:08;19.02;;;4.40;;
13366;SDS011;6752;52.612;13.630;2023-04-25T15:02:11;12.67;;;4.63;;
13366;SDS011;6752;52.612;13.630;2023-04-25T15:07:13;11.15;;;4.10;;
13366;SDS011;6752;52.612;13.630;2023-04-25T15:12:15;12.73;;;4.45;;
13366;SDS011;6752;52.612;13.630;2023-04-25T15:17:17;10.07;;;3.97;;
13366;SDS011;6752;52.612;13.630;2023-04-25T15:27:22;12.75;;;4.50;;
13366;SDS011;6752;52.612;13.630;2023-04-25T15:32:24;12.43;;;4.05;;
13366;SDS011;6752;52.612;13.630;2023-04-25T15:37:26;14.25;;;3.85;;
13366;SDS011;6752;52.612;13.630;2023-04-25T15:42:29;7.43;;;3.10;;
13366;SDS011;6752;52.612;13.630;2023-04-25T15:47:31;8.18;;;2.87;;
13366;SDS011;6752;52.612;13.630;2023-04-25T15:52:34;9.75;;;2.50;;
13366;SDS011;6752;52.612;13.630;2023-04-25T15:57:37;6.35;;;2.70;;
13366;SDS011;6752;52.612;13.630;2023-04-25T16:07:42;9.15;;;3.35;;
13366;SDS011;6752;52.612;13.630;2023-04-25T16:12:43;9.30;;;3.72;;
13366;SDS011;6752;52.612;13.630;2023-04-25T16:17:53;10.68;;;2.80;;
13366;SDS011;6752;52.612;13.630;2023-04-25T16:22:55;10.35;;;3.25;;
13366;SDS011;6752;52.612;13.630;2023-04-25T16:27:57;10.25;;;3.17;;
13366;SDS011;6752;52.612;13.630;2023-04-25T16:33:00;6.97;;;2.85;;
13366;SDS011;6752;52.612;13.630;2023-04-25T16:38:02;8.18;;;3.03;;
13366;SDS011;6752;52.612;13.630;2023-04-25T16:43:04;6.85;;;3.05;;
13366;SDS011;6752;52.612;13.630;2023-04-25T16:48:07;8.73;;;2.92;;
13366;SDS011;6752;52.612;13.630;2023-04-25T16:53:09;6.85;;;3.10;;
13366;SDS011;6752;52.612;13.630;2023-04-25T16:58:11;7.43;;;3.30;;
13366;SDS011;6752;52.612;13.630;2023-04-25T17:03:14;6.00;;;2.60;;
13366;SDS011;6752;52.612;13.630;2023-04-25T17:08:16;10.77;;;3.00;;
13366;SDS011;6752;52.612;13.630;2023-04-25T17:13:18;7.47;;;2.93;;
13366;SDS011;6752;52.612;13.630;2023-04-25T17:28:25;7.25;;;2.87;;
13366;SDS011;6752;52.612;13.630;2023-04-25T17:33:27;8.73;;;3.03;;
13366;SDS011;6752;52.612;13.630;2023-04-25T17:38:29;5.55;;;2.90;;
13366;SDS011;6752;52.612;13.630;2023-04-25T17:43:34;8.57;;;4.03;;
13366;SDS011;6752;52.612;13.630;2023-04-25T17:48:36;10.30;;;4.57;;
13366;SDS011;6752;52.612;13.630;2023-04-25T17:53:38;8.73;;;3.87;;
13366;SDS011;6752;52.612;13.630;2023-04-25T17:58:41;11.23;;;3.78;;
13366;SDS011;6752;52.612;13.630;2023-04-25T18:13:47;9.32;;;4.57;;
13366;SDS011;6752;52.612;13.630;2023-04-25T18:18:49;10.77;;;4.85;;
13366;SDS011;6752;52.612;13.630;2023-04-25T18:23:51;10.43;;;4.45;;
13366;SDS011;6752;52.612;13.630;2023-04-25T18:28:54;9.73;;;4.30;;
13366;SDS011;6752;52.612;13.630;2023-04-25T18:33:56;6.85;;;3.92;;
13366;SDS011;6752;52.612;13.630;2023-04-25T18:38:58;9.40;;;3.80;;
13366;SDS011;6752;52.612;13.630;2023-04-25T18:44:01;13.82;;;5.03;;
13366;SDS011;6752;52.612;13.630;2023-04-25T18:49:03;10.23;;;4.20;;
13366;SDS011;6752;52.612;13.630;2023-04-25T18:54:06;12.98;;;4.93;;
13366;SDS011;6752;52.612;13.630;2023-04-25T19:04:10;8.70;;;4.15;;
13366;SDS011;6752;52.612;13.630;2023-04-25T19:09:12;11.73;;;4.97;;
13366;SDS011;6752;52.612;13.630;2023-04-25T19:14:14;8.48;;;4.03;;
13366;SDS011;6752;52.612;13.630;2023-04-25T19:19:17;8.65;;;4.78;;
13366;SDS011;6752;52.612;13.630;2023-04-25T19:24:19;9.70;;;4.57;;
13366;SDS011;6752;52.612;13.630;2023-04-25T19:29:22;9.82;;;4.53;;
13366;SDS011;6752;52.612;13.630;2023-04-25T19:34:24;10.23;;;4.70;;
13366;SDS011;6752;52.612;13.630;2023-04-25T19:39:33;12.50;;;4.85;;
13366;SDS011;6752;52.612;13.630;2023-04-25T19:44:36;10.70;;;4.50;;
13366;SDS011;6752;52.612;13.630;2023-04-25T19:49:38;6.40;;;3.97;;
13366;SDS011;6752;52.612;13.630;2023-04-25T19:54:40;9.33;;;4.20;;
13366;SDS011;6752;52.612;13.630;2023-04-25T19:59:43;12.75;;;5.53;;
13366;SDS011;6752;52.612;13.630;2023-04-25T20:04:45;11.05;;;5.05;;
13366;SDS011;6752;52.612;13.630;2023-04-25T20:09:48;10.02;;;4.90;;
13366;SDS011;6752;52.612;13.630;2023-04-25T20:19:52;12.43;;;5.07;;
13366;SDS011;6752;52.612;13.630;2023-04-25T20:24:54;13.48;;;5.82;;
13366;SDS011;6752;52.612;13.630;2023-04-25T20:29:56;11.57;;;5.57;;
13366;SDS011;6752;52.612;13.630;2023-04-25T20:34:59;18.02;;;5.68;;
13366;SDS011;6752;52.612;13.630;2023-04-25T20:40:02;14.35;;;5.18;;
13366;SDS011;6752;52.612;13.630;2023-04-25T20:45:03;13.45;;;5.35;;
13366;SDS011;6752;52.612;13.630;2023-04-25T20:50:09;11.87;;;5.20;;
13366;SDS011;6752;52.612;13.630;2023-04-25T20:55:11;13.15;;;5.00;;
13366;SDS011;6752;52.612;13.630;2023-04-25T21:05:18;11.23;;;5.37;;
13366;SDS011;6752;52.612;13.630;2023-04-25T21:10:20;13.13;;;5.12;;
13366;SDS011;6752;52.612;13.630;2023-04-25T21:15:23;16.87;;;5.97;;
13366;SDS011;6752;52.612;13.630;2023-04-25T21:20:25;13.98;;;5.65;;
13366;SDS011;6752;52.612;13.630;2023-04-25T21:25:27;12.35;;;5.55;;
13366;SDS011;6752;52.612;13.630;2023-04-25T21:30:30;16.12;;;5.43;;
13366;SDS011;6752;52.612;13.630;2023-04-25T21:35:32;13.27;;;5.70;;
13366;SDS011;6752;52.612;13.630;2023-04-25T21:40:36;10.23;;;6.37;;
13366;SDS011;6752;52.612;13.630;2023-04-25T21:45:37;17.23;;;5.78;;
13366;SDS011;6752;52.612;13.630;2023-04-25T21:50:39;10.25;;;6.00;;
13366;SDS011;6752;52.612;13.630;2023-04-25T21:55:41;9.98;;;4.78;;
13366;SDS011;6752;52.612;13.630;2023-04-25T22:00:44;13.07;;;5.47;;
13366;SDS011;6752;52.612;13.630;2023-04-25T22:05:46;13.20;;;5.12;;
13366;SDS011;6752;52.612;13.630;2023-04-25T22:10:49;15.70;;;6.45;;
13366;SDS011;6752;52.612;13.630;2023-04-25T22:15:51;12.80;;;5.95;;
13366;SDS011;6752;52.612;13.630;2023-04-25T22:20:53;15.40;;;6.43;;
13366;SDS011;6752;52.612;13.630;2023-04-25T22:25:56;12.70;;;6.47;;
13366;SDS011;6752;52.612;13.630;2023-04-25T22:30:58;13.32;;;5.65;;
13366;SDS011;6752;52.612;13.630;2023-04-25T22:36:00;15.27;;;5.35;;
13366;SDS011;6752;52.612;13.630;2023-04-25T22:41:03;10.95;;;5.78;;
13366;SDS011;6752;52.612;13.630;2023-04-25T22:46:17;11.93;;;5.35;;
13366;SDS011;6752;52.612;13.630;2023-04-25T22:51:19;14.65;;;7.60;;
13366;SDS011;6752;52.612;13.630;2023-04-25T22:56:22;14.52;;;6.32;;
13366;SDS011;6752;52.612;13.630;2023-04-25T23:01:24;12.52;;;6.30;;
13366;SDS011;6752;52.612;13.630;2023-04-25T23:06:26;16.35;;;6.80;;
13366;SDS011;6752;52.612;13.630;2023-04-25T23:11:29;12.00;;;5.85;;
13366;SDS011;6752;52.612;13.630;2023-04-25T23:16:31;12.43;;;6.45;;
13366;SDS011;6752;52.612;13.630;2023-04-25T23:21:34;13.00;;;6.43;;
13366;SDS011;6752;52.612;13.630;2023-04-25T23:26:36;14.55;;;6.53;;
13366;SDS011;6752;52.612;13.630;2023-04-25T23:31:38;14.32;;;6.53;;
13366;SDS011;6752;52.612;13.630;2023-04-25T23:36:43;14.15;;;5.55;;
13366;SDS011;6752;52.612;13.630;2023-04-25T23:41:45;17.52;;;6.93;;
13366;SDS011;6752;52.612;13.630;2023-04-25T23:46:48;14.50;;;6.43;;
13366;SDS011;6752;52.612;13.630;2023-04-25T23:56:52;10.15;;;5.93;;
